Terminal Aerodrome Forecast
Issued by NWS

Current Version | Previous Version | Text Only | Print | Product List | Glossary Off
Versions: 1 2 3 4 5 6 7 8 9 10 11 12 13 14

000
FTUS41 KRNK 261136
TAFLWB
TAF
KLWB 261136Z 2612/2712 00000KT P6SM SCT060
     FM261400 28008G16KT P6SM FEW050 SCT150
     FM262300 27004KT P6SM BKN100=

USA.gov is the U.S. government's official web portal to all federal, state and local government web resources and services.